Private Wetterstation Wechselburg
Wetterdaten: Dienstag, 27.10.2015
Datum Zeit Temp. +2m Bodentemp. Temp.+5cm Temp. Wind Windchill X Diff Temp. Feuchte +2m Feuchte +5cm Sonnenschein Luftdruck Regen Wind Richtung Richtung Sonnenschein Taupunkt Windchill Windben
27.10.2015 00:00 4,0 C 22,3 C 4,8 C 4,6 C 4,6 C 0,6 C 90 % 90 % 0 % 1020,6 hPa 0,0 l/m 0,0 km/h (0 Bft) O-NO 67 0 min 2,5 C 4,6 C 0,0 km/h (0 Bft)
27.10.2015 00:05 3,9 C 22,3 C 4,7 C 4,6 C 4,6 C 0,7 C 90 % 89 % 0 % 1020,6 hPa 0,0 l/m 0,0 km/h (0 Bft) O-NO 67 0 min 2,4 C 4,6 C 0,0 km/h (0 Bft)
27.10.2015 00:10 3,9 C 22,3 C 4,7 C 4,4 C 4,4 C 0,5 C 90 % 90 % 0 % 1020,4 hPa 0,0 l/m 0,0 km/h (0 Bft) O-NO 67 0 min 2,4 C 4,4 C 0,0 km/h (0 Bft)
27.10.2015 00:15 3,9 C 22,3 C 4,5 C 4,4 C 4,4 C 0,5 C 90 % 90 % 0 % 1020,4 hPa 0,0 l/m 0,0 km/h (0 Bft) O-NO 67 0 min 2,4 C 4,4 C 0,0 km/h (0 Bft)
27.10.2015 00:20 3,9 C 22,3 C 4,4 C 4,4 C 4,4 C 0,5 C 90 % 90 % 0 % 1020,4 hPa 0,0 l/m 0,0 km/h (0 Bft) O-NO 67 0 min 2,4 C 4,4 C 0,0 km/h (0 Bft)
27.10.2015 00:25 3,7 C 22,3 C 4,4 C 4,3 C 4,3 C 0,6 C 90 % 90 % 0 % 1020,4 hPa 0,0 l/m 0,0 km/h (0 Bft) O-NO 67 0 min 2,2 C 4,3 C 0,0 km/h (0 Bft)
27.10.2015 00:30 3,6 C 22,2 C 4,3 C 4,3 C 4,3 C 0,7 C 90 % 90 % 0 % 1019,8 hPa 0,0 l/m 0,0 km/h (0 Bft) O-NO 67 0 min 2,1 C 4,3 C 0,0 km/h (0 Bft)
27.10.2015 00:35 3,6 C 22,2 C 4,4 C 4,1 C 4,1 C 0,5 C 90 % 89 % 0 % 1019,8 hPa 0,0 l/m 0,0 km/h (0 Bft) W 270 0 min 2,1 C 4,1 C 0,0 km/h (0 Bft)
27.10.2015 00:41 3,5 C 22,2 C 4,5 C 3,8 C 3,8 C 0,3 C 90 % 89 % 0 % 1019,8 hPa 0,0 l/m 0,0 km/h (0 Bft) N 0 0 min 2,0 C 3,8 C 0,0 km/h (0 Bft)
27.10.2015 00:50 3,5 C 22,2 C 4,3 C 4,0 C 4,0 C 0,5 C 90 % 89 % 0 % 1019,8 hPa 0,0 l/m 0,0 km/h (0 Bft) NW 315 0 min 2,0 C 4,0 C 0,0 km/h (0 Bft)
27.10.2015 00:55 3,3 C 22,2 C 4,4 C 4,0 C 4,0 C 0,7 C 89 % 89 % 0 % 1019,8 hPa 0,0 l/m 0,0 km/h (0 Bft) NW 315 0 min 1,7 C 4,0 C 0,0 km/h (0 Bft)
27.10.2015 01:00 3,2 C 22,2 C 4,4 C 3,8 C 3,8 C 0,6 C 89 % 89 % 0 % 1019,8 hPa 0,0 l/m 0,0 km/h (0 Bft) W-SW 247 0 min 1,6 C 3,8 C 0,0 km/h (0 Bft)
27.10.2015 01:05 3,1 C 22,2 C 4,4 C 3,6 C 3,6 C 0,5 C 89 % 89 % 0 % 1019,8 hPa 0,0 l/m 0,0 km/h (0 Bft) W-SW 247 0 min 1,5 C 3,6 C 0,0 km/h (0 Bft)
27.10.2015 01:10 3,1 C 22,1 C 4,2 C 3,5 C 3,5 C 0,4 C 89 % 89 % 0 % 1020,6 hPa 0,0 l/m 0,0 km/h (0 Bft) W-SW 247 0 min 1,5 C 3,5 C 0,0 km/h (0 Bft)
27.10.2015 01:15 2,9 C 22,1 C 4,2 C 3,4 C 3,4 C 0,5 C 89 % 89 % 0 % 1020,6 hPa 0,0 l/m 0,0 km/h (0 Bft) W-SW 247 0 min 1,3 C 3,4 C 0,0 km/h (0 Bft)
27.10.2015 01:20 2,8 C 22,1 C 4,1 C 3,3 C 3,3 C 0,5 C 89 % 89 % 0 % 1020,6 hPa 0,0 l/m 0,0 km/h (0 Bft) W-SW 247 0 min 1,2 C 3,3 C 0,0 km/h (0 Bft)
27.10.2015 01:25 2,8 C 22,1 C 4,1 C 3,3 C 3,3 C 0,5 C 89 % 89 % 0 % 1020,6 hPa 0,0 l/m 0,0 km/h (0 Bft) W-SW 247 0 min 1,2 C 3,3 C 0,0 km/h (0 Bft)
27.10.2015 01:30 2,8 C 22,1 C 4,0 C 3,4 C 3,4 C 0,6 C 89 % 89 % 0 % 1019,8 hPa 0,0 l/m 0,0 km/h (0 Bft) W-SW 247 0 min 1,2 C 3,4 C 0,0 km/h (0 Bft)
27.10.2015 01:35 2,8 C 22,1 C 4,0 C 3,5 C 3,5 C 0,7 C 89 % 89 % 0 % 1019,8 hPa 0,0 l/m 0,0 km/h (0 Bft) W-SW 247 0 min 1,2 C 3,5 C 0,0 km/h (0 Bft)
27.10.2015 01:40 2,8 C 22,1 C 4,1 C 3,5 C 3,5 C 0,7 C 90 % 89 % 0 % 1019,8 hPa 0,0 l/m 0,0 km/h (0 Bft) W-SW 247 0 min 1,3 C 3,5 C 0,0 km/h (0 Bft)
27.10.2015 01:45 2,7 C 22,1 C 4,1 C 3,3 C 3,3 C 0,6 C 89 % 89 % 0 % 1019,8 hPa 0,0 l/m 0,0 km/h (0 Bft) W-SW 247 0 min 1,1 C 3,3 C 0,0 km/h (0 Bft)
27.10.2015 01:50 2,7 C 22,1 C 4,0 C 3,1 C 3,1 C 0,4 C 90 % 89 % 0 % 1019,9 hPa 0,0 l/m 0,0 km/h (0 Bft) W-SW 247 0 min 1,2 C 3,1 C 0,0 km/h (0 Bft)
27.10.2015 01:55 2,6 C 22,1 C 3,8 C 3,1 C 3,1 C 0,5 C 90 % 89 % 0 % 1019,9 hPa 0,0 l/m 0,0 km/h (0 Bft) W-SW 247 0 min 1,1 C 3,1 C 0,0 km/h (0 Bft)
27.10.2015 02:00 2,8 C 22,1 C 3,9 C 3,2 C 3,2 C 0,4 C 90 % 89 % 0 % 1019,9 hPa 0,0 l/m 0,0 km/h (0 Bft) O-NO 67 0 min 1,3 C 3,2 C 0,0 km/h (0 Bft)
27.10.2015 02:05 2,7 C 22,1 C 3,8 C 3,2 C 3,2 C 0,5 C 90 % 89 % 0 % 1019,9 hPa 0,0 l/m 0,0 km/h (0 Bft) O-NO 67 0 min 1,2 C 3,2 C 0,0 km/h (0 Bft)
27.10.2015 02:10 2,7 C 22,1 C 3,9 C 3,1 C 3,1 C 0,4 C 90 % 89 % 0 % 1020,6 hPa 0,0 l/m 0,0 km/h (0 Bft) O-NO 67 0 min 1,2 C 3,1 C 0,0 km/h (0 Bft)
27.10.2015 02:15 2,5 C 22,1 C 3,7 C 3,1 C 3,1 C 0,6 C 90 % 89 % 0 % 1020,6 hPa 0,0 l/m 0,0 km/h (0 Bft) O-NO 67 0 min 1,0 C 3,1 C 0,0 km/h (0 Bft)
27.10.2015 02:20 2,4 C 22,1 C 3,6 C 2,9 C 2,9 C 0,5 C 90 % 89 % 0 % 1020,6 hPa 0,0 l/m 0,0 km/h (0 Bft) O-NO 67 0 min 0,9 C 2,9 C 0,0 km/h (0 Bft)
27.10.2015 02:25 2,5 C 22,1 C 3,7 C 2,7 C 2,7 C 0,2 C 90 % 89 % 0 % 1020,6 hPa 0,0 l/m 0,0 km/h (0 Bft) W 270 0 min 1,0 C 2,7 C 0,0 km/h (0 Bft)
27.10.2015 02:30 2,3 C 22,1 C 3,7 C 2,7 C 2,7 C 0,4 C 90 % 89 % 0 % 1020,1 hPa 0,0 l/m 0,0 km/h (0 Bft) W 270 0 min 0,8 C 2,7 C 0,0 km/h (0 Bft)
27.10.2015 02:35 2,5 C 22,1 C 3,6 C 2,9 C 2,9 C 0,4 C 90 % 89 % 0 % 1020,1 hPa 0,0 l/m 0,0 km/h (0 Bft) NO 45 0 min 1,0 C 2,9 C 0,0 km/h (0 Bft)
27.10.2015 02:40 2,7 C 22,1 C 3,9 C 3,3 C 3,3 C 0,6 C 90 % 89 % 0 % 1020,1 hPa 0,0 l/m 0,3 km/h (0 Bft) W-SW 247 0 min 1,2 C 3,3 C 0,0 km/h (0 Bft)
27.10.2015 02:45 2,7 C 22,0 C 3,6 C 3,1 C 3,1 C 0,4 C 90 % 89 % 0 % 1020,1 hPa 0,0 l/m 0,3 km/h (0 Bft) S 180 0 min 1,2 C 3,1 C 0,0 km/h (0 Bft)
27.10.2015 02:50 2,4 C 22,0 C 3,5 C 2,5 C 2,5 C 0,1 C 90 % 89 % 0 % 1019,9 hPa 0,0 l/m 0,0 km/h (0 Bft) SW 225 0 min 0,9 C 2,5 C 0,0 km/h (0 Bft)
27.10.2015 02:55 2,3 C 22,0 C 3,4 C 2,3 C 2,3 C 0,0 C 90 % 89 % 0 % 1019,9 hPa 0,0 l/m 0,2 km/h (0 Bft) NO 45 0 min 0,8 C 2,3 C 0,0 km/h (0 Bft)
27.10.2015 03:00 2,3 C 22,0 C 3,4 C 2,4 C 2,4 C 0,1 C 90 % 89 % 0 % 1019,9 hPa 0,0 l/m 0,2 km/h (0 Bft) S-SW 202 0 min 0,8 C 2,4 C 0,0 km/h (0 Bft)
27.10.2015 03:05 2,1 C 22,0 C 3,5 C 2,3 C 2,3 C 0,2 C 90 % 89 % 0 % 1019,9 hPa 0,0 l/m 0,2 km/h (0 Bft) W-SW 247 0 min 0,6 C 2,3 C 0,0 km/h (0 Bft)
27.10.2015 03:10 2,0 C 22,0 C 3,2 C 2,0 C 2,0 C 0,0 C 90 % 89 % 0 % 1019,8 hPa 0,0 l/m 0,0 km/h (0 Bft) W-SW 247 0 min 0,5 C 2,0 C 0,0 km/h (0 Bft)
27.10.2015 03:15 1,9 C 21,9 C 3,2 C 1,9 C 1,9 C 0,0 C 90 % 89 % 0 % 1019,8 hPa 0,0 l/m 0,0 km/h (0 Bft) W-SW 247 0 min 0,4 C 1,9 C 0,0 km/h (0 Bft)
27.10.2015 03:20 1,8 C 21,9 C 3,2 C 1,8 C 1,8 C 0,0 C 90 % 89 % 0 % 1019,8 hPa 0,0 l/m 0,0 km/h (0 Bft) W-SW 247 0 min 0,3 C 1,8 C 0,0 km/h (0 Bft)
27.10.2015 03:25 1,7 C 22,0 C 3,2 C 1,9 C 1,9 C 0,2 C 90 % 89 % 0 % 1019,8 hPa 0,0 l/m 0,0 km/h (0 Bft) SW 225 0 min 0,2 C 1,9 C 0,0 km/h (0 Bft)
27.10.2015 03:30 1,7 C 22,0 C 3,5 C 2,0 C 2,0 C 0,3 C 90 % 89 % 0 % 1019,5 hPa 0,0 l/m 0,0 km/h (0 Bft) W-SW 247 0 min 0,2 C 2,0 C 0,0 km/h (0 Bft)
27.10.2015 03:35 1,8 C 21,9 C 3,5 C 2,1 C 2,1 C 0,3 C 90 % 88 % 0 % 1019,5 hPa 0,0 l/m 0,0 km/h (0 Bft) W-NW 292 0 min 0,3 C 2,1 C 0,0 km/h (0 Bft)
27.10.2015 03:41 1,9 C 22,0 C 3,5 C 2,4 C 2,4 C 0,5 C 90 % 88 % 0 % 1019,5 hPa 0,0 l/m 0,0 km/h (0 Bft) N 0 0 min 0,4 C 2,4 C 0,0 km/h (0 Bft)
27.10.2015 03:50 2,0 C 21,9 C 3,5 C 2,5 C 2,5 C 0,5 C 90 % 88 % 0 % 1019,4 hPa 0,0 l/m 0,0 km/h (0 Bft) O-SO 112 0 min 0,5 C 2,5 C 0,0 km/h (0 Bft)
27.10.2015 03:55 2,0 C 21,9 C 3,4 C 2,5 C 2,5 C 0,5 C 90 % 88 % 0 % 1019,4 hPa 0,0 l/m 0,0 km/h (0 Bft) O 90 0 min 0,5 C 2,5 C 0,0 km/h (0 Bft)
27.10.2015 04:00 2,1 C 21,9 C 3,5 C 2,5 C 2,5 C 0,4 C 91 % 88 % 0 % 1019,4 hPa 0,0 l/m 0,0 km/h (0 Bft) O-NO 67 0 min 0,8 C 2,5 C 1,6 km/h (1 Bft)
27.10.2015 04:05 2,3 C 21,9 C 3,5 C 2,7 C 2,7 C 0,4 C 91 % 88 % 0 % 1019,4 hPa 0,0 l/m 0,2 km/h (0 Bft) S 180 0 min 1,0 C 2,7 C 0,0 km/h (0 Bft)
27.10.2015 04:10 2,1 C 21,9 C 3,3 C 2,5 C 2,5 C 0,4 C 91 % 88 % 0 % 1019,5 hPa 0,0 l/m 0,2 km/h (0 Bft) S 180 0 min 0,8 C 2,5 C 0,0 km/h (0 Bft)
27.10.2015 04:15 2,0 C 21,9 C 3,3 C 2,4 C 2,4 C 0,4 C 90 % 88 % 0 % 1019,5 hPa 0,0 l/m 0,0 km/h (0 Bft) S 180 0 min 0,5 C 2,4 C 0,0 km/h (0 Bft)
27.10.2015 04:20 1,9 C 21,9 C 3,2 C 2,2 C 2,2 C 0,3 C 90 % 88 % 0 % 1019,5 hPa 0,0 l/m 0,0 km/h (0 Bft) W 270 0 min 0,4 C 2,2 C 0,0 km/h (0 Bft)
27.10.2015 04:25 1,9 C 21,9 C 3,2 C 2,1 C 2,1 C 0,2 C 90 % 88 % 0 % 1019,5 hPa 0,0 l/m 0,0 km/h (0 Bft) W-SW 247 0 min 0,4 C 2,1 C 0,0 km/h (0 Bft)
27.10.2015 04:30 1,7 C 21,8 C 3,2 C 1,9 C 1,9 C 0,2 C 90 % 88 % 0 % 1019,5 hPa 0,0 l/m 0,2 km/h (0 Bft) W-NW 292 0 min 0,2 C 1,9 C 0,0 km/h (0 Bft)
27.10.2015 04:35 1,6 C 21,8 C 3,2 C 2,0 C 2,0 C 0,4 C 90 % 88 % 0 % 1019,5 hPa 0,0 l/m 0,2 km/h (0 Bft) W 270 0 min 0,1 C 2,0 C 0,0 km/h (0 Bft)
27.10.2015 04:40 1,6 C 21,8 C 3,1 C 2,0 C 2,0 C 0,4 C 90 % 88 % 0 % 1019,5 hPa 0,0 l/m 0,0 km/h (0 Bft) W 270 0 min 0,1 C 2,0 C 0,0 km/h (0 Bft)
27.10.2015 04:45 1,6 C 21,8 C 3,1 C 2,1 C 2,1 C 0,5 C 90 % 88 % 0 % 1019,5 hPa 0,0 l/m 0,0 km/h (0 Bft) NW 315 0 min 0,1 C 2,1 C 0,0 km/h (0 Bft)
27.10.2015 04:50 1,6 C 21,8 C 3,2 C 2,3 C 2,3 C 0,7 C 90 % 88 % 0 % 1019,3 hPa 0,0 l/m 0,0 km/h (0 Bft) SW 225 0 min 0,1 C 2,3 C 0,0 km/h (0 Bft)
27.10.2015 04:55 1,6 C 21,8 C 3,2 C 2,3 C 2,3 C 0,7 C 90 % 88 % 0 % 1019,3 hPa 0,0 l/m 0,0 km/h (0 Bft) W 270 0 min 0,1 C 2,3 C 0,0 km/h (0 Bft)
27.10.2015 05:00 1,9 C 21,8 C 3,2 C 2,4 C 2,4 C 0,5 C 91 % 88 % 0 % 1019,3 hPa 0,0 l/m 0,0 km/h (0 Bft) N-NW 337 0 min 0,6 C 2,4 C 1,8 km/h (1 Bft)
27.10.2015 05:05 2,1 C 21,8 C 3,2 C 2,5 C 2,5 C 0,4 C 91 % 88 % 0 % 1019,3 hPa 0,0 l/m 0,0 km/h (0 Bft) W 270 0 min 0,8 C 2,5 C 0,0 km/h (0 Bft)
27.10.2015 05:10 2,0 C 21,8 C 3,2 C 2,6 C 2,6 C 0,6 C 91 % 88 % 0 % 1019,2 hPa 0,0 l/m 0,0 km/h (0 Bft) W 270 0 min 0,7 C 2,6 C 0,0 km/h (0 Bft)
27.10.2015 05:15 2,0 C 21,8 C 3,3 C 2,6 C 2,6 C 0,6 C 91 % 88 % 0 % 1019,2 hPa 0,0 l/m 0,0 km/h (0 Bft) NW 315 0 min 0,7 C 2,6 C 0,0 km/h (0 Bft)
27.10.2015 05:20 2,1 C 21,8 C 3,2 C 2,8 C 2,8 C 0,7 C 91 % 88 % 0 % 1019,2 hPa 0,0 l/m 0,0 km/h (0 Bft) O-NO 67 0 min 0,8 C 2,8 C 0,0 km/h (0 Bft)
27.10.2015 05:25 2,3 C 21,8 C 3,3 C 2,9 C 2,9 C 0,6 C 91 % 88 % 0 % 1019,2 hPa 0,0 l/m 0,0 km/h (0 Bft) O-NO 67 0 min 1,0 C 2,9 C 0,0 km/h (0 Bft)
27.10.2015 05:30 2,3 C 21,8 C 3,2 C 3,1 C 3,1 C 0,8 C 91 % 88 % 0 % 1019,3 hPa 0,0 l/m 0,0 km/h (0 Bft) NO 45 0 min 1,0 C 3,1 C 0,0 km/h (0 Bft)
27.10.2015 05:35 2,3 C 21,8 C 3,2 C 3,1 C 3,1 C 0,8 C 91 % 88 % 0 % 1019,3 hPa 0,0 l/m 0,0 km/h (0 Bft) NO 45 0 min 1,0 C 3,1 C 0,0 km/h (0 Bft)
27.10.2015 05:40 2,3 C 21,8 C 3,2 C 3,2 C 3,2 C 0,9 C 91 % 88 % 0 % 1019,3 hPa 0,0 l/m 0,0 km/h (0 Bft) N-NO 22 0 min 1,0 C 3,2 C 1,6 km/h (1 Bft)
27.10.2015 05:45 2,3 C 21,7 C 3,2 C 3,2 C 3,2 C 0,9 C 91 % 87 % 0 % 1019,3 hPa 0,0 l/m 0,0 km/h (0 Bft) W-SW 247 0 min 1,0 C 3,2 C 0,0 km/h (0 Bft)
27.10.2015 05:50 1,9 C 21,7 C 3,0 C 2,5 C 2,5 C 0,6 C 90 % 88 % 0 % 1019,3 hPa 0,0 l/m 0,0 km/h (0 Bft) N-NW 337 0 min 0,4 C 2,5 C 0,0 km/h (0 Bft)
27.10.2015 05:55 1,8 C 21,7 C 2,8 C 2,1 C 2,1 C 0,3 C 90 % 88 % 0 % 1019,3 hPa 0,0 l/m 0,0 km/h (0 Bft) O 90 0 min 0,3 C 2,1 C 0,0 km/h (0 Bft)
27.10.2015 06:00 1,7 C 21,7 C 2,9 C 2,1 C 2,1 C 0,4 C 90 % 88 % 0 % 1019,3 hPa 0,0 l/m 0,0 km/h (0 Bft) O 90 0 min 0,2 C 2,1 C 0,0 km/h (0 Bft)
27.10.2015 06:05 1,8 C 21,7 C 2,9 C 2,2 C 2,2 C 0,4 C 90 % 88 % 0 % 1019,3 hPa 0,0 l/m 0,2 km/h (0 Bft) O-NO 67 0 min 0,3 C 2,2 C 1,6 km/h (1 Bft)
27.10.2015 06:10 2,0 C 21,7 C 3,1 C 2,8 C 2,8 C 0,8 C 91 % 88 % 0 % 1019,5 hPa 0,0 l/m 1,0 km/h (0 Bft) NO 45 0 min 0,7 C 2,8 C 3,4 km/h (1 Bft)
27.10.2015 06:15 2,3 C 21,7 C 3,1 C 3,2 C 3,2 C 0,9 C 91 % 88 % 0 % 1019,5 hPa 0,0 l/m 0,8 km/h (0 Bft) W-SW 247 0 min 1,0 C 3,2 C 0,0 km/h (0 Bft)
27.10.2015 06:20 2,1 C 21,7 C 3,1 C 3,1 C 3,1 C 1,0 C 91 % 87 % 0 % 1019,5 hPa 0,0 l/m 0,2 km/h (0 Bft) NW 315 0 min 0,8 C 3,1 C 0,0 km/h (0 Bft)
27.10.2015 06:25 2,1 C 21,7 C 3,2 C 3,1 C 3,1 C 1,0 C 91 % 87 % 0 % 1019,5 hPa 0,0 l/m 0,0 km/h (0 Bft) NW 315 0 min 0,8 C 3,1 C 0,0 km/h (0 Bft)
27.10.2015 06:30 2,1 C 21,7 C 3,2 C 3,2 C 3,2 C 1,1 C 91 % 87 % 0 % 1019,0 hPa 0,0 l/m 0,0 km/h (0 Bft) NW 315 0 min 0,8 C 3,2 C 0,0 km/h (0 Bft)
27.10.2015 06:35 2,1 C 21,7 C 3,2 C 3,2 C 3,2 C 1,1 C 91 % 87 % 0 % 1019,0 hPa 0,0 l/m 0,0 km/h (0 Bft) NW 315 0 min 0,8 C 3,2 C 0,0 km/h (0 Bft)
27.10.2015 06:41 2,3 C 21,6 C 3,3 C 3,2 C 3,2 C 0,9 C 91 % 87 % 0 % 1019,0 hPa 0,0 l/m 0,0 km/h (0 Bft) N 0 0 min 1,0 C 3,2 C 0,0 km/h (0 Bft)
27.10.2015 06:50 2,3 C 21,6 C 3,3 C 3,3 C 3,3 C 1,0 C 91 % 87 % 0 % 1019,2 hPa 0,0 l/m 0,2 km/h (0 Bft) NW 315 0 min 1,0 C 3,3 C 0,0 km/h (0 Bft)
27.10.2015 06:55 2,4 C 21,6 C 3,3 C 3,3 C 3,3 C 0,9 C 91 % 87 % 0 % 1019,2 hPa 0,0 l/m 0,2 km/h (0 Bft) S-SW 202 0 min 1,1 C 3,3 C 0,0 km/h (0 Bft)
27.10.2015 07:00 2,3 C 21,6 C 3,2 C 3,0 C 3,0 C 0,7 C 91 % 87 % 0 % 1019,2 hPa 0,0 l/m 0,0 km/h (0 Bft) W-SW 247 0 min 1,0 C 3,0 C 0,0 km/h (0 Bft)
27.10.2015 07:05 2,3 C 21,6 C 3,2 C 2,7 C 2,7 C 0,4 C 91 % 87 % 11 % 1019,2 hPa 0,0 l/m 0,0 km/h (0 Bft) SW 225 5 min 1,0 C 2,7 C 0,0 km/h (0 Bft)
27.10.2015 07:10 2,1 C 21,6 C 3,1 C 2,4 C 2,4 C 0,3 C 91 % 87 % 8 % 1019,3 hPa 0,0 l/m 0,0 km/h (0 Bft) S 180 0 min 0,8 C 2,4 C 0,0 km/h (0 Bft)
27.10.2015 07:15 2,0 C 21,6 C 3,1 C 2,3 C 2,3 C 0,3 C 91 % 87 % 8 % 1019,3 hPa 0,0 l/m 0,0 km/h (0 Bft) S 180 0 min 0,7 C 2,3 C 0,0 km/h (0 Bft)
27.10.2015 07:20 2,0 C 21,5 C 3,2 C 2,4 C 2,4 C 0,4 C 91 % 87 % 11 % 1019,3 hPa 0,0 l/m 0,0 km/h (0 Bft) O-NO 67 0 min 0,7 C 2,4 C 0,0 km/h (0 Bft)
27.10.2015 07:25 2,1 C 21,5 C 3,1 C 2,5 C 2,5 C 0,4 C 91 % 87 % 11 % 1019,3 hPa 0,0 l/m 0,0 km/h (0 Bft) SW 225 0 min 0,8 C 2,5 C 0,0 km/h (0 Bft)
27.10.2015 07:30 1,9 C 21,5 C 3,1 C 2,3 C 2,3 C 0,4 C 91 % 87 % 11 % 1019,4 hPa 0,0 l/m 0,0 km/h (0 Bft) SW 225 0 min 0,6 C 2,3 C 0,0 km/h (0 Bft)
27.10.2015 07:35 1,9 C 21,5 C 3,1 C 2,3 C 2,3 C 0,4 C 91 % 87 % 11 % 1019,4 hPa 0,0 l/m 0,0 km/h (0 Bft) SW 225 0 min 0,6 C 2,3 C 0,0 km/h (0 Bft)
27.10.2015 07:40 2,0 C 21,5 C 3,2 C 2,5 C 2,5 C 0,5 C 91 % 87 % 13 % 1019,4 hPa 0,0 l/m 0,0 km/h (0 Bft) O-SO 112 0 min 0,7 C 2,5 C 0,0 km/h (0 Bft)
27.10.2015 07:45 2,0 C 21,5 C 3,3 C 2,5 C 2,5 C 0,5 C 91 % 87 % 13 % 1019,4 hPa 0,0 l/m 0,0 km/h (0 Bft) W-SW 247 0 min 0,7 C 2,5 C 0,0 km/h (0 Bft)
27.10.2015 07:50 2,0 C 21,5 C 3,3 C 2,6 C 2,6 C 0,6 C 91 % 87 % 16 % 1020,0 hPa 0,0 l/m 0,0 km/h (0 Bft) W-SW 247 0 min 0,7 C 2,6 C 0,0 km/h (0 Bft)
27.10.2015 07:55 2,1 C 21,5 C 3,3 C 2,8 C 2,8 C 0,7 C 91 % 87 % 18 % 1020,0 hPa 0,0 l/m 0,0 km/h (0 Bft) W-SW 247 0 min 0,8 C 2,8 C 0,0 km/h (0 Bft)
27.10.2015 08:00 2,0 C 21,5 C 3,5 C 3,0 C 3,0 C 1,0 C 91 % 87 % 26 % 1020,0 hPa 0,0 l/m 0,0 km/h (0 Bft) O 90 0 min 0,7 C 3,0 C 0,0 km/h (0 Bft)
27.10.2015 08:05 2,2 C 21,5 C 3,6 C 3,4 C 3,4 C 1,2 C 91 % 87 % 32 % 1020,0 hPa 0,0 l/m 0,0 km/h (0 Bft) W-SW 247 0 min 0,9 C 3,4 C 0,0 km/h (0 Bft)
27.10.2015 08:10 2,3 C 21,5 C 3,7 C 3,7 C 3,7 C 1,4 C 91 % 86 % 37 % 1019,7 hPa 0,0 l/m 0,0 km/h (0 Bft) W-SW 247 0 min 1,0 C 3,7 C 0,0 km/h (0 Bft)
27.10.2015 08:15 2,3 C 21,5 C 3,9 C 3,9 C 3,9 C 1,6 C 91 % 86 % 42 % 1019,7 hPa 0,0 l/m 0,0 km/h (0 Bft) W-SW 247 0 min 1,0 C 3,9 C 0,0 km/h (0 Bft)
27.10.2015 08:20 2,4 C 21,5 C 3,9 C 4,6 C 4,6 C 2,2 C 92 % 86 % 58 % 1019,7 hPa 0,0 l/m 0,0 km/h (0 Bft) W-SW 247 5 min 1,2 C 4,6 C 0,0 km/h (0 Bft)
27.10.2015 08:25 2,5 C 21,5 C 4,1 C 4,8 C 4,8 C 2,3 C 92 % 86 % 61 % 1019,7 hPa 0,0 l/m 0,0 km/h (0 Bft) W-SW 247 5 min 1,3 C 4,8 C 0,0 km/h (0 Bft)
27.10.2015 08:30 2,6 C 21,5 C 4,3 C 5,0 C 5,0 C 2,4 C 92 % 85 % 63 % 1019,9 hPa 0,0 l/m 0,0 km/h (0 Bft) W-SW 247 5 min 1,4 C 5,0 C 0,0 km/h (0 Bft)
27.10.2015 08:35 2,7 C 21,5 C 4,5 C 5,0 C 5,0 C 2,3 C 92 % 85 % 61 % 1019,9 hPa 0,0 l/m 0,0 km/h (0 Bft) W-SW 247 5 min 1,5 C 5,0 C 0,0 km/h (0 Bft)
27.10.2015 08:40 3,1 C 21,5 C 4,7 C 5,2 C 5,2 C 2,1 C 92 % 84 % 55 % 1019,9 hPa 0,0 l/m 0,0 km/h (0 Bft) W-NW 292 0 min 1,9 C 5,2 C 0,0 km/h (0 Bft)
27.10.2015 08:45 3,3 C 21,5 C 4,8 C 5,4 C 5,4 C 2,1 C 92 % 84 % 55 % 1019,9 hPa 0,0 l/m 0,0 km/h (0 Bft) SW 225 0 min 2,1 C 5,4 C 0,0 km/h (0 Bft)
27.10.2015 08:50 3,5 C 21,5 C 5,0 C 5,7 C 5,7 C 2,2 C 92 % 84 % 58 % 1019,4 hPa 0,0 l/m 0,0 km/h (0 Bft) W-SW 247 0 min 2,3 C 5,7 C 0,0 km/h (0 Bft)
27.10.2015 08:55 3,6 C 21,5 C 5,1 C 5,7 C 5,7 C 2,1 C 92 % 84 % 55 % 1019,4 hPa 0,0 l/m 0,0 km/h (0 Bft) W-SW 247 0 min 2,4 C 5,7 C 0,0 km/h (0 Bft)
27.10.2015 09:00 3,7 C 21,5 C 5,3 C 5,9 C 5,9 C 2,2 C 92 % 84 % 58 % 1019,4 hPa 0,0 l/m 0,0 km/h (0 Bft) W-SW 247 0 min 2,5 C 5,9 C 0,0 km/h (0 Bft)
27.10.2015 09:05 3,8 C 21,4 C 5,3 C 6,0 C 6,0 C 2,2 C 92 % 84 % 58 % 1019,4 hPa 0,0 l/m 0,0 km/h (0 Bft) W-SW 247 0 min 2,6 C 6,0 C 0,0 km/h (0 Bft)
27.10.2015 09:10 4,0 C 21,4 C 5,6 C 6,4 C 6,4 C 2,4 C 92 % 84 % 63 % 1020,2 hPa 0,0 l/m 0,0 km/h (0 Bft) SW 225 0 min 2,8 C 6,4 C 0,0 km/h (0 Bft)
27.10.2015 09:15 4,3 C 21,4 C 5,6 C 6,5 C 6,5 C 2,2 C 92 % 84 % 58 % 1020,2 hPa 0,0 l/m 0,0 km/h (0 Bft) W-SW 247 0 min 3,1 C 6,5 C 0,0 km/h (0 Bft)
27.10.2015 09:20 4,4 C 21,4 C 5,8 C 6,7 C 6,7 C 2,3 C 92 % 83 % 61 % 1020,2 hPa 0,0 l/m 0,0 km/h (0 Bft) N 360 0 min 3,2 C 6,7 C 0,0 km/h (0 Bft)
27.10.2015 09:25 4,7 C 21,4 C 6,0 C 7,0 C 7,0 C 2,3 C 93 % 83 % 61 % 1020,2 hPa 0,0 l/m 0,8 km/h (0 Bft) O-NO 67 0 min 3,7 C 7,0 C 6,0 km/h (2 Bft)
27.10.2015 09:30 5,8 C 21,4 C 6,7 C 7,8 C 7,8 C 2,0 C 93 % 81 % 53 % 1019,5 hPa 0,0 l/m 2,9 km/h (1 Bft) O-NO 67 0 min 4,8 C 7,8 C 4,8 km/h (1 Bft)
27.10.2015 09:35 6,3 C 21,4 C 7,3 C 8,1 C 8,1 C 1,8 C 93 % 79 % 47 % 1019,5 hPa 0,0 l/m 4,0 km/h (1 Bft) O-NO 67 0 min 5,3 C 8,1 C 6,1 km/h (2 Bft)
27.10.2015 09:41 6,9 C 21,4 C 7,9 C 8,5 C 8,5 C 1,6 C 93 % 78 % 42 % 1019,5 hPa 0,0 l/m 4,3 km/h (1 Bft) N 0 0 min 5,8 C 8,5 C 6,6 km/h (2 Bft)
27.10.2015 09:50 7,6 C 21,3 C 8,5 C 9,4 C 9,4 C 1,8 C 93 % 78 % 47 % 1019,8 hPa 0,0 l/m 3,9 km/h (1 Bft) O-NO 67 0 min 6,5 C 9,4 C 2,7 km/h (1 Bft)
27.10.2015 09:55 7,9 C 21,2 C 8,5 C 9,6 C 9,6 C 1,7 C 93 % 80 % 45 % 1019,8 hPa 0,0 l/m 3,5 km/h (1 Bft) O-NO 67 0 min 6,8 C 9,6 C 4,3 km/h (1 Bft)
27.10.2015 10:00 8,3 C 21,2 C 8,8 C 9,8 C 9,8 C 1,5 C 93 % 82 % 39 % 1019,8 hPa 0,0 l/m 3,5 km/h (1 Bft) O-NO 67 0 min 7,2 C 9,8 C 3,1 km/h (1 Bft)
27.10.2015 10:05 8,4 C 21,2 C 8,9 C 9,9 C 9,9 C 1,5 C 92 % 83 % 39 % 1019,8 hPa 0,0 l/m 3,4 km/h (1 Bft) O-NO 67 0 min 7,2 C 9,9 C 3,1 km/h (1 Bft)
27.10.2015 10:10 8,8 C 21,1 C 9,5 C 10,3 C 10,3 C 1,5 C 92 % 85 % 39 % 1019,4 hPa 0,0 l/m 2,4 km/h (1 Bft) O-SO 112 0 min 7,6 C 10,3 C 0,0 km/h (0 Bft)
27.10.2015 10:15 9,1 C 21,1 C 9,4 C 10,5 C 10,5 C 1,4 C 92 % 86 % 37 % 1019,4 hPa 0,0 l/m 2,9 km/h (1 Bft) NO 45 0 min 7,9 C 10,5 C 6,1 km/h (2 Bft)
27.10.2015 10:20 9,5 C 21,1 C 9,8 C 10,7 C 10,7 C 1,2 C 91 % 88 % 32 % 1019,4 hPa 0,0 l/m 4,2 km/h (1 Bft) O-SO 112 0 min 8,1 C 10,7 C 6,9 km/h (2 Bft)
27.10.2015 10:25 9,6 C 21,1 C 10,0 C 10,8 C 10,8 C 1,2 C 90 % 88 % 32 % 1019,4 hPa 0,0 l/m 4,7 km/h (1 Bft) O-SO 112 0 min 8,0 C 10,8 C 3,4 km/h (1 Bft)
27.10.2015 10:30 9,9 C 21,1 C 10,3 C 11,2 C 11,2 C 1,3 C 90 % 89 % 34 % 1019,4 hPa 0,0 l/m 4,5 km/h (1 Bft) O-NO 67 0 min 8,3 C 11,2 C 6,4 km/h (2 Bft)
27.10.2015 10:35 10,0 C 21,0 C 10,4 C 11,4 C 11,4 C 1,4 C 89 % 89 % 37 % 1019,4 hPa 0,0 l/m 3,5 km/h (1 Bft) NO 45 0 min 8,3 C 11,4 C 0,0 km/h (0 Bft)
27.10.2015 10:40 10,3 C 21,1 C 10,6 C 11,6 C 11,6 C 1,3 C 89 % 90 % 34 % 1019,4 hPa 0,0 l/m 2,6 km/h (1 Bft) O-NO 67 0 min 8,6 C 11,6 C 10,6 km/h (2 Bft)
27.10.2015 10:45 10,5 C 21,0 C 10,8 C 11,9 C 11,9 C 1,4 C 89 % 90 % 37 % 1019,4 hPa 0,0 l/m 2,6 km/h (1 Bft) O 90 0 min 8,8 C 11,9 C 1,8 km/h (1 Bft)
27.10.2015 10:50 10,7 C 21,0 C 11,0 C 12,2 C 12,2 C 1,5 C 87 % 89 % 39 % 1019,3 hPa 0,0 l/m 3,1 km/h (1 Bft) S-SO 157 0 min 8,6 C 12,2 C 3,1 km/h (1 Bft)
27.10.2015 10:55 10,7 C 20,9 C 11,2 C 12,5 C 12,5 C 1,8 C 86 % 89 % 47 % 1019,3 hPa 0,0 l/m 2,7 km/h (1 Bft) W-SW 247 0 min 8,5 C 12,5 C 3,2 km/h (1 Bft)
27.10.2015 11:00 10,8 C 20,9 C 11,5 C 12,9 C 12,9 C 2,1 C 85 % 88 % 55 % 1019,3 hPa 0,0 l/m 2,7 km/h (1 Bft) NO 45 0 min 8,4 C 12,9 C 3,5 km/h (1 Bft)
27.10.2015 11:06 10,9 C 20,9 C 11,5 C 13,2 C 13,2 C 2,3 C 84 % 88 % 61 % 1019,3 hPa 0,0 l/m 2,6 km/h (1 Bft) O-NO 67 0 min 8,3 C 13,2 C 2,1 km/h (1 Bft)
27.10.2015 11:10 11,1 C 20,9 C 11,6 C 13,4 C 13,4 C 2,3 C 83 % 87 % 61 % 1019,2 hPa 0,0 l/m 2,1 km/h (1 Bft) S 180 0 min 8,3 C 13,4 C 3,1 km/h (1 Bft)
27.10.2015 11:17 11,3 C 20,9 C 11,7 C 13,5 C 13,5 C 2,2 C 82 % 87 % 58 % 1019,2 hPa 0,0 l/m 2,1 km/h (1 Bft) SW 225 0 min 8,3 C 13,5 C 3,9 km/h (1 Bft)
27.10.2015 11:18 11,3 C 20,9 C 11,7 C 13,5 C 13,5 C 2,2 C 82 % 87 % 58 % 1019,2 hPa 0,0 l/m 2,1 km/h (1 Bft) SW 225 0 min 8,3 C 13,5 C 3,9 km/h (1 Bft)
27.10.2015 11:19 11,4 C 20,9 C 11,9 C 13,9 C 13,9 C 2,5 C 81 % 86 % 66 % 1019,2 hPa 0,0 l/m 2,4 km/h (1 Bft) O-NO 67 0 min 8,3 C 13,9 C 5,3 km/h (1 Bft)
27.10.2015 11:20 11,4 C 20,9 C 11,9 C 13,9 C 13,9 C 2,5 C 81 % 86 % 66 % 1019,2 hPa 0,0 l/m 2,4 km/h (1 Bft) O-NO 67 0 min 8,3 C 13,9 C 5,3 km/h (1 Bft)
27.10.2015 11:21 11,4 C 20,9 C 11,9 C 13,9 C 13,9 C 2,5 C 81 % 86 % 66 % 1019,2 hPa 0,0 l/m 2,4 km/h (1 Bft) O-NO 67 0 min 8,3 C 13,9 C 5,3 km/h (1 Bft)
27.10.2015 11:23 11,5 C 20,9 C 11,9 C 14,3 C 14,3 C 2,8 C 80 % 86 % 74 % 1019,2 hPa 0,0 l/m 2,3 km/h (1 Bft) O-SO 112 0 min 8,2 C 14,3 C 0,0 km/h (0 Bft)
27.10.2015 11:28 11,6 C 20,9 C 11,9 C 15,0 C 15,0 C 3,4 C 80 % 85 % 89 % 1019,1 hPa 0,0 l/m 2,3 km/h (1 Bft) SO 135 5 min 8,3 C 15,0 C 2,7 km/h (1 Bft)
27.10.2015 11:33 12,0 C 21,0 C 12,1 C 15,1 C 15,1 C 3,1 C 78 % 85 % 82 % 1019,1 hPa 0,0 l/m 2,7 km/h (1 Bft) NO 45 0 min 8,3 C 15,1 C 8,0 km/h (2 Bft)
27.10.2015 11:38 12,0 C 21,0 C 12,3 C 16,2 C 16,2 C 4,2 C 78 % 84 % 100 % 1019,1 hPa 0,0 l/m 3,5 km/h (1 Bft) SO 135 5 min 8,3 C 16,2 C 8,0 km/h (2 Bft)
27.10.2015 11:43 12,1 C 21,0 C 12,3 C 16,8 C 16,8 C 4,7 C 78 % 84 % 100 % 1019,1 hPa 0,0 l/m 3,1 km/h (1 Bft) N 360 5 min 8,4 C 16,8 C 0,0 km/h (0 Bft)
27.10.2015 11:48 12,4 C 21,0 C 12,2 C 17,2 C 17,2 C 4,8 C 77 % 84 % 100 % 1019,0 hPa 0,0 l/m 3,9 km/h (1 Bft) O-NO 67 5 min 8,5 C 17,2 C 3,2 km/h (1 Bft)
27.10.2015 11:52 12,4 C 21,0 C 12,2 C 17,2 C 17,2 C 4,8 C 77 % 84 % 100 % 1019,0 hPa 0,0 l/m 3,9 km/h (1 Bft) O-NO 67 4 min 8,5 C 17,2 C 3,2 km/h (1 Bft)
27.10.2015 11:55 12,4 C 21,0 C 12,3 C 17,0 C 17,0 C 4,6 C 77 % 84 % 100 % 1019,0 hPa 0,0 l/m 4,0 km/h (1 Bft) O 90 3 min 8,5 C 17,0 C 3,2 km/h (1 Bft)
27.10.2015 12:00 12,5 C 21,0 C 12,3 C 17,2 C 17,2 C 4,7 C 77 % 84 % 100 % 1019,0 hPa 0,0 l/m 3,4 km/h (1 Bft) O-NO 67 5 min 8,6 C 17,2 C 6,4 km/h (2 Bft)
27.10.2015 12:05 12,6 C 21,0 C 12,3 C 17,2 C 17,2 C 4,6 C 76 % 83 % 100 % 1019,0 hPa 0,0 l/m 3,7 km/h (1 Bft) O-NO 67 5 min 8,5 C 17,2 C 2,9 km/h (1 Bft)
27.10.2015 12:10 12,8 C 21,0 C 12,4 C 17,5 C 17,5 C 4,7 C 75 % 83 % 100 % 1018,7 hPa 0,0 l/m 3,7 km/h (1 Bft) O 90 5 min 8,5 C 17,5 C 11,1 km/h (2 Bft)
27.10.2015 12:15 12,8 C 21,0 C 12,5 C 17,4 C 17,4 C 4,6 C 75 % 83 % 100 % 1018,7 hPa 0,0 l/m 3,5 km/h (1 Bft) O-NO 67 5 min 8,5 C 17,4 C 4,7 km/h (1 Bft)
27.10.2015 12:20 13,1 C 21,0 C 12,7 C 17,0 C 17,0 C 3,9 C 74 % 81 % 100 % 1018,7 hPa 0,0 l/m 4,5 km/h (1 Bft) NO 45 5 min 8,6 C 17,0 C 7,2 km/h (2 Bft)
27.10.2015 12:25 13,0 C 21,0 C 12,7 C 16,9 C 16,9 C 3,9 C 74 % 81 % 100 % 1018,7 hPa 0,0 l/m 4,3 km/h (1 Bft) O-NO 67 5 min 8,5 C 16,9 C 2,4 km/h (1 Bft)
27.10.2015 12:30 13,2 C 21,1 C 12,7 C 17,0 C 17,0 C 3,8 C 74 % 81 % 100 % 1018,7 hPa 0,0 l/m 4,5 km/h (1 Bft) O-NO 67 5 min 8,7 C 17,0 C 5,5 km/h (1 Bft)
27.10.2015 12:35 13,2 C 21,1 C 12,7 C 17,1 C 17,1 C 3,9 C 73 % 81 % 100 % 1018,7 hPa 0,0 l/m 3,9 km/h (1 Bft) O-NO 67 5 min 8,5 C 17,1 C 9,5 km/h (2 Bft)
27.10.2015 12:41 13,2 C 21,1 C 12,7 C 17,3 C 17,3 C 4,1 C 74 % 81 % 100 % 1018,7 hPa 0,0 l/m 4,5 km/h (1 Bft) N 0 6 min 8,7 C 17,3 C 13,5 km/h (3 Bft)
27.10.2015 12:50 13,4 C 21,1 C 12,9 C 18,5 C 18,5 C 5,1 C 73 % 80 % 100 % 1018,4 hPa 0,0 l/m 2,9 km/h (1 Bft) O-SO 112 9 min 8,7 C 18,5 C 3,5 km/h (1 Bft)
27.10.2015 12:55 13,4 C 21,1 C 13,0 C 18,2 C 18,2 C 4,8 C 73 % 80 % 100 % 1018,4 hPa 0,0 l/m 4,3 km/h (1 Bft) NO 45 5 min 8,7 C 18,2 C 2,9 km/h (1 Bft)
27.10.2015 13:00 13,5 C 21,1 C 12,9 C 18,1 C 18,1 C 4,6 C 73 % 80 % 100 % 1018,4 hPa 0,0 l/m 4,3 km/h (1 Bft) S-SO 157 5 min 8,8 C 18,1 C 0,0 km/h (0 Bft)
27.10.2015 13:05 13,5 C 21,1 C 13,1 C 18,4 C 18,4 C 4,9 C 73 % 80 % 100 % 1018,4 hPa 0,0 l/m 3,4 km/h (1 Bft) O-NO 67 5 min 8,8 C 18,4 C 2,9 km/h (1 Bft)
27.10.2015 13:10 13,5 C 21,2 C 13,0 C 18,8 C 18,8 C 5,3 C 73 % 80 % 100 % 1018,7 hPa 0,0 l/m 2,7 km/h (1 Bft) O-NO 67 5 min 8,8 C 18,8 C 6,4 km/h (2 Bft)
27.10.2015 13:15 13,6 C 21,2 C 13,1 C 18,6 C 18,6 C 5,0 C 72 % 80 % 100 % 1018,7 hPa 0,0 l/m 4,0 km/h (1 Bft) NO 45 5 min 8,6 C 18,6 C 6,4 km/h (2 Bft)
27.10.2015 13:20 13,5 C 21,2 C 13,0 C 18,5 C 18,5 C 5,0 C 72 % 79 % 100 % 1018,7 hPa 0,0 l/m 4,5 km/h (1 Bft) O-NO 67 5 min 8,6 C 18,5 C 4,2 km/h (1 Bft)
27.10.2015 13:25 13,5 C 21,2 C 13,1 C 18,5 C 18,5 C 5,0 C 73 % 80 % 100 % 1018,7 hPa 0,0 l/m 3,5 km/h (1 Bft) O-NO 67 5 min 8,8 C 18,5 C 3,7 km/h (1 Bft)
27.10.2015 13:30 13,6 C 21,2 C 13,1 C 18,2 C 18,2 C 4,6 C 72 % 79 % 100 % 1018,1 hPa 0,0 l/m 4,5 km/h (1 Bft) O-NO 67 5 min 8,6 C 18,2 C 9,8 km/h (2 Bft)
27.10.2015 13:35 13,5 C 21,2 C 13,1 C 17,9 C 17,9 C 4,4 C 72 % 79 % 100 % 1018,1 hPa 0,0 l/m 5,0 km/h (1 Bft) NW 315 5 min 8,6 C 17,9 C 1,8 km/h (1 Bft)
27.10.2015 13:40 13,6 C 21,2 C 13,3 C 18,4 C 18,4 C 4,8 C 72 % 78 % 100 % 1018,1 hPa 0,0 l/m 3,5 km/h (1 Bft) NO 45 5 min 8,6 C 18,4 C 4,5 km/h (1 Bft)
27.10.2015 13:45 13,6 C 21,2 C 13,2 C 18,2 C 18,2 C 4,6 C 72 % 78 % 100 % 1018,1 hPa 0,0 l/m 3,4 km/h (1 Bft) NO 45 5 min 8,6 C 18,2 C 4,5 km/h (1 Bft)
27.10.2015 13:50 13,5 C 21,2 C 13,3 C 18,4 C 18,4 C 4,9 C 72 % 78 % 100 % 1018,0 hPa 0,0 l/m 3,2 km/h (1 Bft) S-SO 157 5 min 8,6 C 18,4 C 2,9 km/h (1 Bft)
27.10.2015 13:55 13,5 C 21,2 C 13,3 C 18,7 C 18,7 C 5,2 C 72 % 78 % 100 % 1018,0 hPa 0,0 l/m 1,8 km/h (1 Bft) O 90 5 min 8,6 C 18,7 C 2,6 km/h (1 Bft)
27.10.2015 14:00 13,5 C 21,2 C 13,2 C 18,9 C 18,9 C 5,4 C 73 % 78 % 100 % 1018,0 hPa 0,0 l/m 1,8 km/h (1 Bft) O-SO 112 5 min 8,8 C 18,9 C 1,8 km/h (1 Bft)
27.10.2015 14:05 13,5 C 21,2 C 13,3 C 18,9 C 18,9 C 5,4 C 72 % 78 % 100 % 1018,0 hPa 0,0 l/m 2,3 km/h (1 Bft) O-SO 112 5 min 8,6 C 18,9 C 3,2 km/h (1 Bft)
27.10.2015 14:10 13,4 C 21,2 C 13,3 C 18,8 C 18,8 C 5,4 C 73 % 77 % 100 % 1017,9 hPa 0,0 l/m 2,1 km/h (1 Bft) O-NO 67 5 min 8,7 C 18,8 C 4,2 km/h (1 Bft)
27.10.2015 14:15 13,4 C 21,2 C 13,5 C 18,6 C 18,6 C 5,2 C 73 % 78 % 100 % 1017,9 hPa 0,0 l/m 2,4 km/h (1 Bft) N-NO 22 5 min 8,7 C 18,6 C 2,3 km/h (1 Bft)
27.10.2015 14:20 13,5 C 21,2 C 13,3 C 18,7 C 18,7 C 5,2 C 72 % 78 % 100 % 1017,9 hPa 0,0 l/m 2,6 km/h (1 Bft) SO 135 5 min 8,6 C 18,7 C 4,7 km/h (1 Bft)
27.10.2015 14:25 13,4 C 21,2 C 13,3 C 18,3 C 18,3 C 4,9 C 72 % 77 % 100 % 1017,9 hPa 0,0 l/m 3,4 km/h (1 Bft) SO 135 5 min 8,5 C 18,3 C 3,4 km/h (1 Bft)
27.10.2015 14:30 13,5 C 21,2 C 13,5 C 18,1 C 18,1 C 4,6 C 72 % 77 % 100 % 1018,4 hPa 0,0 l/m 3,4 km/h (1 Bft) O-NO 67 5 min 8,6 C 18,1 C 4,3 km/h (1 Bft)
27.10.2015 14:35 13,5 C 21,2 C 13,3 C 18,4 C 18,4 C 4,9 C 72 % 78 % 100 % 1018,4 hPa 0,0 l/m 1,9 km/h (1 Bft) O 90 5 min 8,6 C 18,4 C 2,6 km/h (1 Bft)
27.10.2015 14:40 13,5 C 21,3 C 13,2 C 18,2 C 18,2 C 4,7 C 72 % 78 % 100 % 1018,4 hPa 0,0 l/m 2,3 km/h (1 Bft) O-SO 112 5 min 8,6 C 18,2 C 2,1 km/h (1 Bft)
27.10.2015 14:45 13,5 C 21,3 C 13,3 C 18,1 C 18,1 C 4,6 C 72 % 78 % 100 % 1018,4 hPa 0,0 l/m 2,7 km/h (1 Bft) O-SO 112 5 min 8,6 C 18,1 C 0,0 km/h (0 Bft)
27.10.2015 14:50 13,5 C 21,3 C 13,3 C 17,9 C 17,9 C 4,4 C 72 % 78 % 100 % 1017,7 hPa 0,0 l/m 2,3 km/h (1 Bft) O-NO 67 5 min 8,6 C 17,9 C 5,1 km/h (1 Bft)
27.10.2015 14:55 13,5 C 21,3 C 13,1 C 17,6 C 17,6 C 4,1 C 72 % 78 % 100 % 1017,7 hPa 0,0 l/m 2,6 km/h (1 Bft) NO 45 5 min 8,6 C 17,6 C 3,7 km/h (1 Bft)
27.10.2015 15:00 13,5 C 21,3 C 12,9 C 17,0 C 17,0 C 3,5 C 72 % 78 % 92 % 1017,7 hPa 0,0 l/m 3,9 km/h (1 Bft) O 90 5 min 8,6 C 17,0 C 5,5 km/h (1 Bft)
27.10.2015 15:05 13,3 C 21,3 C 12,8 C 16,8 C 16,8 C 3,5 C 72 % 78 % 92 % 1017,7 hPa 0,0 l/m 3,5 km/h (1 Bft) O-NO 67 5 min 8,4 C 16,8 C 3,1 km/h (1 Bft)
27.10.2015 15:10 13,3 C 21,3 C 12,8 C 16,9 C 16,9 C 3,6 C 72 % 78 % 95 % 1017,6 hPa 0,0 l/m 2,6 km/h (1 Bft) O-NO 67 5 min 8,4 C 16,9 C 5,3 km/h (1 Bft)
27.10.2015 15:15 13,2 C 21,3 C 12,8 C 16,8 C 16,8 C 3,6 C 72 % 78 % 95 % 1017,6 hPa 0,0 l/m 2,4 km/h (1 Bft) O-NO 67 5 min 8,3 C 16,8 C 3,5 km/h (1 Bft)
27.10.2015 15:20 13,1 C 21,3 C 12,6 C 16,7 C 16,7 C 3,6 C 72 % 78 % 95 % 1017,6 hPa 0,0 l/m 2,6 km/h (1 Bft) O-NO 67 5 min 8,2 C 16,7 C 4,5 km/h (1 Bft)
27.10.2015 15:25 13,0 C 21,3 C 12,5 C 16,4 C 16,4 C 3,4 C 72 % 79 % 89 % 1017,6 hPa 0,0 l/m 2,4 km/h (1 Bft) NO 45 5 min 8,1 C 16,4 C 4,8 km/h (1 Bft)
27.10.2015 15:30 12,9 C 21,5 C 12,5 C 16,2 C 16,2 C 3,3 C 73 % 79 % 87 % 1017,5 hPa 0,0 l/m 1,9 km/h (1 Bft) O-NO 67 5 min 8,2 C 16,2 C 2,6 km/h (1 Bft)
27.10.2015 15:35 12,8 C 21,5 C 12,3 C 16,0 C 16,0 C 3,2 C 73 % 80 % 84 % 1017,5 hPa 0,0 l/m 1,8 km/h (1 Bft) NO 45 5 min 8,1 C 16,0 C 3,2 km/h (1 Bft)
27.10.2015 15:41 12,8 C 21,5 C 12,1 C 15,8 C 15,8 C 3,0 C 73 % 80 % 79 % 1017,5 hPa 0,0 l/m 1,9 km/h (1 Bft) N 0 6 min 8,1 C 15,8 C 2,3 km/h (1 Bft)
27.10.2015 15:50 12,6 C 21,5 C 11,8 C 15,5 C 15,5 C 2,9 C 73 % 80 % 76 % 1017,4 hPa 0,0 l/m 0,8 km/h (0 Bft) SO 135 9 min 7,9 C 15,5 C 3,1 km/h (1 Bft)
27.10.2015 15:55 12,6 C 21,5 C 11,7 C 15,3 C 15,3 C 2,7 C 73 % 81 % 71 % 1017,4 hPa 0,0 l/m 1,3 km/h (1 Bft) SO 135 5 min 7,9 C 15,3 C 4,3 km/h (1 Bft)
27.10.2015 16:00 12,4 C 21,5 C 11,6 C 14,9 C 14,9 C 2,5 C 73 % 81 % 66 % 1017,4 hPa 0,0 l/m 1,9 km/h (1 Bft) O-NO 67 5 min 7,7 C 14,9 C 2,1 km/h (1 Bft)
27.10.2015 16:06 12,4 C 21,5 C 11,5 C 14,7 C 14,7 C 2,3 C 74 % 81 % 61 % 1017,4 hPa 0,0 l/m 1,6 km/h (1 Bft) O-NO 67 6 min 7,9 C 14,7 C 0,0 km/h (0 Bft)
27.10.2015 16:10 12,3 C 21,5 C 11,5 C 14,3 C 14,3 C 2,0 C 74 % 82 % 53 % 1017,4 hPa 0,0 l/m 1,4 km/h (1 Bft) O-SO 112 4 min 7,8 C 14,3 C 0,0 km/h (0 Bft)
27.10.2015 16:17 12,3 C 21,5 C 11,3 C 13,9 C 13,9 C 1,6 C 74 % 82 % 42 % 1017,4 hPa 0,0 l/m 1,3 km/h (1 Bft) W 270 7 min 7,8 C 13,9 C 1,6 km/h (1 Bft)
27.10.2015 16:18 12,3 C 21,5 C 11,3 C 13,9 C 13,9 C 1,6 C 74 % 82 % 42 % 1017,4 hPa 0,0 l/m 1,3 km/h (1 Bft) W 270 1 min 7,8 C 13,9 C 1,6 km/h (1 Bft)
27.10.2015 16:19 12,0 C 21,5 C 11,1 C 13,3 C 13,3 C 1,3 C 74 % 82 % 34 % 1017,4 hPa 0,0 l/m 1,0 km/h (0 Bft) NO 45 1 min 7,5 C 13,3 C 3,1 km/h (1 Bft)
27.10.2015 16:20 12,0 C 21,5 C 11,1 C 13,3 C 13,3 C 1,3 C 74 % 82 % 34 % 1017,4 hPa 0,0 l/m 1,0 km/h (0 Bft) NO 45 1 min 7,5 C 13,3 C 3,1 km/h (1 Bft)
27.10.2015 16:21 12,0 C 21,5 C 11,1 C 13,3 C 13,3 C 1,3 C 74 % 82 % 34 % 1017,4 hPa 0,0 l/m 1,0 km/h (0 Bft) NO 45 1 min 7,5 C 13,3 C 3,1 km/h (1 Bft)
27.10.2015 16:23 11,9 C 21,5 C 11,0 C 12,8 C 12,8 C 0,9 C 74 % 83 % 24 % 1017,4 hPa 0,0 l/m 1,1 km/h (1 Bft) O-SO 112 2 min 7,4 C 12,8 C 0,0 km/h (0 Bft)
27.10.2015 16:28 11,8 C 21,5 C 10,8 C 12,3 C 12,3 C 0,5 C 74 % 83 % 13 % 1017,5 hPa 0,0 l/m 1,1 km/h (1 Bft) W-SW 247 5 min 7,3 C 12,3 C 2,1 km/h (1 Bft)
27.10.2015 16:33 11,6 C 21,5 C 10,7 C 12,0 C 12,0 C 0,4 C 74 % 83 % 11 % 1017,5 hPa 0,0 l/m 0,8 km/h (0 Bft) SO 135 5 min 7,1 C 12,0 C 0,0 km/h (0 Bft)
27.10.2015 16:38 11,5 C 21,6 C 10,5 C 11,5 C 11,5 C 0,0 C 75 % 83 % 0 % 1017,5 hPa 0,0 l/m 1,3 km/h (1 Bft) SO 135 0 min 7,2 C 11,5 C 2,1 km/h (1 Bft)
27.10.2015 16:43 11,5 C 21,6 C 10,4 C 11,4 C 11,2 C 0,0 C 75 % 83 % 0 % 1017,5 hPa 0,0 l/m 1,3 km/h (1 Bft) O-NO 67 0 min 7,2 C 11,2 C 0,0 km/h (0 Bft)
27.10.2015 16:48 11,2 C 21,6 C 10,0 C 11,0 C 10,7 C 0,0 C 75 % 83 % 0 % 1017,5 hPa 0,0 l/m 0,3 km/h (0 Bft) N-NO 22 0 min 6,9 C 10,7 C 2,6 km/h (1 Bft)
27.10.2015 16:53 11,1 C 21,6 C 10,0 C 10,9 C 10,5 C 0,0 C 75 % 84 % 0 % 1017,5 hPa 0,0 l/m 0,2 km/h (0 Bft) O 90 0 min 6,8 C 10,5 C 0,0 km/h (0 Bft)
27.10.2015 16:58 10,7 C 21,6 C 9,7 C 10,5 C 10,1 C 0,0 C 75 % 84 % 0 % 1017,5 hPa 0,0 l/m 0,3 km/h (0 Bft) O-NO 67 0 min 6,5 C 10,1 C 0,0 km/h (0 Bft)
27.10.2015 17:03 10,6 C 21,6 C 9,6 C 10,4 C 9,9 C 0,0 C 76 % 85 % 0 % 1017,5 hPa 0,0 l/m 0,3 km/h (0 Bft) O-SO 112 0 min 6,5 C 9,9 C 0,0 km/h (0 Bft)
27.10.2015 17:08 10,3 C 21,6 C 9,5 C 10,1 C 9,6 C 0,0 C 76 % 85 % 0 % 1017,4 hPa 0,0 l/m 0,2 km/h (0 Bft) NW 315 0 min 6,3 C 9,6 C 0,0 km/h (0 Bft)
27.10.2015 17:13 10,1 C 21,6 C 9,3 C 9,9 C 9,4 C 0,0 C 77 % 85 % 0 % 1017,4 hPa 0,0 l/m 0,0 km/h (0 Bft) N 360 0 min 6,3 C 9,4 C 0,0 km/h (0 Bft)
27.10.2015 17:18 9,9 C 21,6 C 9,1 C 9,6 C 9,0 C 0,0 C 76 % 85 % 0 % 1017,4 hPa 0,0 l/m 0,0 km/h (0 Bft) NO 45 0 min 5,9 C 9,0 C 0,0 km/h (0 Bft)
27.10.2015 17:23 9,7 C 21,6 C 8,9 C 9,4 C 8,7 C 0,0 C 77 % 86 % 0 % 1017,4 hPa 0,0 l/m 0,0 km/h (0 Bft) NO 45 0 min 5,9 C 8,7 C 0,0 km/h (0 Bft)
27.10.2015 17:28 9,3 C 21,6 C 8,7 C 9,0 C 8,5 C 0,0 C 78 % 86 % 0 % 1017,5 hPa 0,0 l/m 0,0 km/h (0 Bft) O-NO 67 0 min 5,7 C 8,5 C 0,0 km/h (0 Bft)
27.10.2015 17:33 9,2 C 21,7 C 8,5 C 8,9 C 8,4 C 0,0 C 78 % 86 % 0 % 1017,5 hPa 0,0 l/m 0,2 km/h (0 Bft) O-NO 67 0 min 5,6 C 8,4 C 0,0 km/h (0 Bft)
27.10.2015 17:38 8,9 C 21,7 C 8,4 C 8,7 C 8,3 C 0,0 C 78 % 87 % 0 % 1017,5 hPa 0,0 l/m 0,2 km/h (0 Bft) O 90 0 min 5,3 C 8,3 C 0,0 km/h (0 Bft)
27.10.2015 17:43 8,7 C 21,7 C 8,4 C 8,5 C 8,2 C 0,0 C 78 % 87 % 0 % 1017,5 hPa 0,0 l/m 0,0 km/h (0 Bft) N-NW 337 0 min 5,1 C 8,2 C 0,0 km/h (0 Bft)
27.10.2015 17:48 8,5 C 21,7 C 8,3 C 8,3 C 8,0 C 0,0 C 79 % 87 % 0 % 1017,4 hPa 0,0 l/m 0,0 km/h (0 Bft) NO 45 0 min 5,1 C 8,0 C 0,0 km/h (0 Bft)
27.10.2015 17:53 8,3 C 21,8 C 8,2 C 8,2 C 8,0 C 0,0 C 79 % 87 % 0 % 1017,4 hPa 0,0 l/m 0,2 km/h (0 Bft) NO 45 0 min 4,9 C 8,0 C 2,9 km/h (1 Bft)
27.10.2015 17:58 8,3 C 21,7 C 8,1 C 8,3 C 8,3 C 0,0 C 80 % 88 % 0 % 1017,4 hPa 0,0 l/m 1,4 km/h (1 Bft) NO 45 0 min 5,1 C 8,3 C 3,5 km/h (1 Bft)
27.10.2015 18:03 8,3 C 21,8 C 8,3 C 8,5 C 8,5 C 0,2 C 80 % 88 % 0 % 1017,4 hPa 0,0 l/m 1,8 km/h (1 Bft) S 180 0 min 5,1 C 8,5 C 0,0 km/h (0 Bft)
27.10.2015 18:08 8,2 C 21,8 C 8,3 C 8,4 C 8,4 C 0,2 C 80 % 88 % 0 % 1017,6 hPa 0,0 l/m 0,8 km/h (0 Bft) SO 135 0 min 5,0 C 8,4 C 0,0 km/h (0 Bft)
27.10.2015 18:13 8,0 C 21,8 C 8,1 C 8,2 C 8,2 C 0,2 C 80 % 88 % 0 % 1017,6 hPa 0,0 l/m 0,2 km/h (0 Bft) N-NO 22 0 min 4,8 C 8,2 C 2,3 km/h (1 Bft)
27.10.2015 18:18 7,9 C 21,8 C 8,0 C 8,1 C 8,1 C 0,2 C 80 % 88 % 0 % 1017,6 hPa 0,0 l/m 0,0 km/h (0 Bft) SO 135 0 min 4,7 C 8,1 C 0,0 km/h (0 Bft)
27.10.2015 18:23 7,7 C 21,8 C 8,0 C 7,9 C 7,9 C 0,2 C 80 % 89 % 0 % 1017,6 hPa 0,0 l/m 0,0 km/h (0 Bft) O-NO 67 0 min 4,5 C 7,9 C 0,0 km/h (0 Bft)
27.10.2015 18:28 7,5 C 21,8 C 7,9 C 7,5 C 7,4 C 0,0 C 81 % 89 % 0 % 1017,4 hPa 0,0 l/m 0,0 km/h (0 Bft) NO 45 0 min 4,5 C 7,4 C 0,0 km/h (0 Bft)
27.10.2015 18:33 7,5 C 21,8 C 7,6 C 7,4 C 7,2 C 0,0 C 81 % 88 % 0 % 1017,4 hPa 0,0 l/m 0,0 km/h (0 Bft) NO 45 0 min 4,5 C 7,2 C 0,0 km/h (0 Bft)
27.10.2015 18:38 7,3 C 21,8 C 7,5 C 7,2 C 7,1 C 0,0 C 81 % 88 % 0 % 1017,4 hPa 0,0 l/m 0,0 km/h (0 Bft) N-NW 337 0 min 4,3 C 7,1 C 0,0 km/h (0 Bft)
27.10.2015 18:43 7,1 C 21,8 C 7,4 C 7,0 C 6,9 C 0,0 C 81 % 89 % 0 % 1017,4 hPa 0,0 l/m 0,0 km/h (0 Bft) N 360 0 min 4,1 C 6,9 C 0,0 km/h (0 Bft)
27.10.2015 18:48 6,9 C 21,8 C 7,3 C 6,9 C 6,8 C 0,0 C 82 % 89 % 0 % 1017,4 hPa 0,0 l/m 0,0 km/h (0 Bft) NO 45 0 min 4,0 C 6,8 C 0,0 km/h (0 Bft)
27.10.2015 18:53 6,8 C 21,8 C 7,1 C 6,8 C 6,7 C 0,0 C 82 % 89 % 0 % 1017,4 hPa 0,0 l/m 0,0 km/h (0 Bft) N-NW 337 0 min 3,9 C 6,7 C 0,0 km/h (0 Bft)
27.10.2015 18:58 6,7 C 21,8 C 7,1 C 6,7 C 6,6 C 0,0 C 82 % 89 % 0 % 1017,4 hPa 0,0 l/m 0,0 km/h (0 Bft) N-NW 337 0 min 3,8 C 6,6 C 0,0 km/h (0 Bft)
27.10.2015 19:03 6,4 C 21,8 C 7,0 C 6,5 C 6,5 C 0,1 C 82 % 89 % 0 % 1017,4 hPa 0,0 l/m 0,0 km/h (0 Bft) W-SW 247 0 min 3,6 C 6,5 C 0,0 km/h (0 Bft)
27.10.2015 19:08 6,3 C 21,8 C 6,9 C 6,4 C 6,4 C 0,1 C 83 % 89 % 0 % 1017,4 hPa 0,0 l/m 0,0 km/h (0 Bft) N 360 0 min 3,6 C 6,4 C 0,0 km/h (0 Bft)
27.10.2015 19:13 6,3 C 21,8 C 6,9 C 6,4 C 6,4 C 0,1 C 83 % 89 % 0 % 1017,4 hPa 0,0 l/m 0,0 km/h (0 Bft) N-NO 22 0 min 3,6 C 6,4 C 0,0 km/h (0 Bft)
27.10.2015 19:17 6,3 C 21,8 C 6,9 C 6,4 C 6,4 C 0,1 C 83 % 89 % 0 % 1017,4 hPa 0,0 l/m 0,0 km/h (0 Bft) N-NO 22 0 min 3,6 C 6,4 C 0,0 km/h (0 Bft)
27.10.2015 19:20 6,0 C 21,9 C 6,7 C 6,2 C 6,2 C 0,2 C 83 % 89 % 0 % 1017,4 hPa 0,0 l/m 0,0 km/h (0 Bft) N-NW 337 0 min 3,3 C 6,2 C 0,0 km/h (0 Bft)
27.10.2015 19:25 6,0 C 21,9 C 6,5 C 6,2 C 6,2 C 0,2 C 83 % 90 % 0 % 1017,4 hPa 0,0 l/m 0,0 km/h (0 Bft) N-NW 337 0 min 3,3 C 6,2 C 0,0 km/h (0 Bft)
27.10.2015 19:30 5,9 C 21,9 C 6,4 C 6,4 C 6,4 C 0,5 C 84 % 90 % 0 % 1017,9 hPa 0,0 l/m 0,0 km/h (0 Bft) N-NW 337 0 min 3,4 C 6,4 C 0,0 km/h (0 Bft)
27.10.2015 19:35 5,9 C 21,9 C 6,3 C 6,3 C 6,3 C 0,4 C 84 % 90 % 0 % 1017,9 hPa 0,0 l/m 0,0 km/h (0 Bft) O-NO 67 0 min 3,4 C 6,3 C 0,0 km/h (0 Bft)
27.10.2015 19:40 5,6 C 21,9 C 6,1 C 6,2 C 6,2 C 0,6 C 84 % 90 % 0 % 1017,9 hPa 0,0 l/m 0,0 km/h (0 Bft) O-NO 67 0 min 3,1 C 6,2 C 0,0 km/h (0 Bft)
27.10.2015 19:45 5,7 C 21,9 C 6,0 C 6,2 C 6,2 C 0,5 C 84 % 89 % 0 % 1017,9 hPa 0,0 l/m 0,0 km/h (0 Bft) NW 315 0 min 3,2 C 6,2 C 0,0 km/h (0 Bft)
27.10.2015 19:50 5,5 C 22,0 C 6,1 C 5,9 C 5,9 C 0,4 C 84 % 90 % 0 % 1017,4 hPa 0,0 l/m 0,0 km/h (0 Bft) W-SW 247 0 min 3,0 C 5,9 C 0,0 km/h (0 Bft)
27.10.2015 19:55 5,3 C 22,0 C 6,0 C 5,7 C 5,7 C 0,4 C 84 % 90 % 0 % 1017,4 hPa 0,0 l/m 0,0 km/h (0 Bft) W-SW 247 0 min 2,8 C 5,7 C 0,0 km/h (0 Bft)
27.10.2015 20:00 5,1 C 22,0 C 5,9 C 5,3 C 5,3 C 0,2 C 84 % 90 % 0 % 1017,4 hPa 0,0 l/m 0,0 km/h (0 Bft) SW 225 0 min 2,6 C 5,3 C 0,0 km/h (0 Bft)
27.10.2015 20:05 4,9 C 22,0 C 5,9 C 5,2 C 5,2 C 0,3 C 84 % 90 % 0 % 1017,4 hPa 0,0 l/m 0,0 km/h (0 Bft) O-NO 67 0 min 2,4 C 5,2 C 0,0 km/h (0 Bft)
27.10.2015 20:10 4,8 C 22,0 C 5,7 C 5,1 C 5,1 C 0,3 C 84 % 90 % 0 % 1017,2 hPa 0,0 l/m 0,0 km/h (0 Bft) NO 45 0 min 2,3 C 5,1 C 0,0 km/h (0 Bft)
27.10.2015 20:15 4,7 C 22,0 C 5,6 C 5,0 C 5,0 C 0,3 C 84 % 90 % 0 % 1017,2 hPa 0,0 l/m 0,0 km/h (0 Bft) O-NO 67 0 min 2,2 C 5,0 C 0,0 km/h (0 Bft)
27.10.2015 20:20 4,7 C 22,0 C 5,4 C 5,0 C 5,0 C 0,3 C 85 % 90 % 0 % 1017,2 hPa 0,0 l/m 0,0 km/h (0 Bft) NO 45 0 min 2,4 C 5,0 C 0,0 km/h (0 Bft)
27.10.2015 20:25 4,7 C 22,0 C 5,3 C 5,0 C 5,0 C 0,3 C 85 % 90 % 0 % 1017,2 hPa 0,0 l/m 0,0 km/h (0 Bft) O-NO 67 0 min 2,4 C 5,0 C 0,0 km/h (0 Bft)
27.10.2015 20:30 4,7 C 22,0 C 5,2 C 5,0 C 5,0 C 0,3 C 86 % 90 % 0 % 1017,8 hPa 0,0 l/m 0,0 km/h (0 Bft) O-NO 67 0 min 2,6 C 5,0 C 0,0 km/h (0 Bft)
27.10.2015 20:35 4,7 C 22,0 C 5,1 C 5,1 C 5,1 C 0,4 C 86 % 90 % 0 % 1017,8 hPa 0,0 l/m 0,0 km/h (0 Bft) O-NO 67 0 min 2,6 C 5,1 C 0,0 km/h (0 Bft)
27.10.2015 20:40 4,5 C 21,9 C 5,0 C 4,8 C 4,8 C 0,3 C 86 % 90 % 0 % 1017,8 hPa 0,0 l/m 0,0 km/h (0 Bft) NW 315 0 min 2,4 C 4,8 C 0,0 km/h (0 Bft)
27.10.2015 20:45 4,4 C 22,0 C 5,1 C 4,7 C 4,7 C 0,3 C 86 % 90 % 0 % 1017,8 hPa 0,0 l/m 0,0 km/h (0 Bft) O-NO 67 0 min 2,3 C 4,7 C 0,0 km/h (0 Bft)
27.10.2015 20:50 4,2 C 22,0 C 5,1 C 4,6 C 4,6 C 0,4 C 86 % 90 % 0 % 1017,1 hPa 0,0 l/m 0,0 km/h (0 Bft) NO 45 0 min 2,1 C 4,6 C 0,0 km/h (0 Bft)
27.10.2015 20:55 4,0 C 22,0 C 5,1 C 4,3 C 4,3 C 0,3 C 85 % 91 % 0 % 1017,1 hPa 0,0 l/m 0,0 km/h (0 Bft) NO 45 0 min 1,7 C 4,3 C 0,0 km/h (0 Bft)
27.10.2015 21:00 3,9 C 21,9 C 4,9 C 4,1 C 4,1 C 0,2 C 85 % 91 % 0 % 1017,1 hPa 0,0 l/m 0,0 km/h (0 Bft) W 270 0 min 1,6 C 4,1 C 0,0 km/h (0 Bft)
27.10.2015 21:05 3,8 C 22,0 C 4,9 C 3,9 C 3,9 C 0,1 C 85 % 91 % 0 % 1017,1 hPa 0,0 l/m 0,0 km/h (0 Bft) W 270 0 min 1,5 C 3,9 C 0,0 km/h (0 Bft)
27.10.2015 21:10 3,6 C 22,0 C 4,8 C 3,7 C 3,7 C 0,1 C 85 % 91 % 0 % 1017,1 hPa 0,0 l/m 0,0 km/h (0 Bft) N-NO 22 0 min 1,3 C 3,7 C 0,0 km/h (0 Bft)
27.10.2015 21:15 3,6 C 22,0 C 4,7 C 3,8 C 3,8 C 0,2 C 86 % 91 % 0 % 1017,1 hPa 0,0 l/m 0,0 km/h (0 Bft) O-NO 67 0 min 1,5 C 3,8 C 0,0 km/h (0 Bft)
27.10.2015 21:20 3,6 C 21,9 C 4,4 C 3,7 C 3,7 C 0,1 C 86 % 90 % 0 % 1017,1 hPa 0,0 l/m 0,0 km/h (0 Bft) NO 45 0 min 1,5 C 3,7 C 0,0 km/h (0 Bft)
27.10.2015 21:25 3,5 C 21,9 C 4,5 C 3,6 C 3,6 C 0,1 C 86 % 90 % 0 % 1017,1 hPa 0,0 l/m 0,0 km/h (0 Bft) O-NO 67 0 min 1,4 C 3,6 C 0,0 km/h (0 Bft)
27.10.2015 21:30 3,2 C 21,9 C 4,5 C 3,5 C 3,5 C 0,3 C 86 % 90 % 0 % 1017,0 hPa 0,0 l/m 0,0 km/h (0 Bft) O-NO 67 0 min 1,1 C 3,5 C 0,0 km/h (0 Bft)
27.10.2015 21:35 3,2 C 21,9 C 4,3 C 3,3 C 3,3 C 0,1 C 86 % 90 % 0 % 1017,0 hPa 0,0 l/m 0,0 km/h (0 Bft) O-NO 67 0 min 1,1 C 3,3 C 0,0 km/h (0 Bft)
27.10.2015 21:41 3,1 C 21,9 C 4,3 C 3,2 C 3,2 C 0,1 C 86 % 90 % 0 % 1017,0 hPa 0,0 l/m 0,0 km/h (0 Bft) N 0 0 min 1,0 C 3,2 C 0,0 km/h (0 Bft)
27.10.2015 21:50 2,9 C 21,9 C 4,0 C 3,3 C 3,3 C 0,4 C 86 % 90 % 0 % 1017,4 hPa 0,0 l/m 0,0 km/h (0 Bft) O-NO 67 0 min 0,8 C 3,3 C 0,0 km/h (0 Bft)
27.10.2015 21:55 3,1 C 21,9 C 4,0 C 3,4 C 3,4 C 0,3 C 87 % 90 % 0 % 1017,4 hPa 0,0 l/m 0,0 km/h (0 Bft) O-NO 67 0 min 1,2 C 3,4 C 0,0 km/h (0 Bft)
27.10.2015 22:00 2,9 C 21,9 C 4,0 C 3,3 C 3,3 C 0,4 C 87 % 90 % 0 % 1017,4 hPa 0,0 l/m 0,0 km/h (0 Bft) NO 45 0 min 1,0 C 3,3 C 0,0 km/h (0 Bft)
27.10.2015 22:05 2,8 C 21,9 C 4,0 C 3,1 C 3,1 C 0,3 C 87 % 90 % 0 % 1017,4 hPa 0,0 l/m 0,0 km/h (0 Bft) NO 45 0 min 0,9 C 3,1 C 0,0 km/h (0 Bft)
27.10.2015 22:10 2,7 C 21,9 C 4,1 C 2,9 C 2,9 C 0,2 C 87 % 90 % 0 % 1017,0 hPa 0,0 l/m 0,0 km/h (0 Bft) NO 45 0 min 0,8 C 2,9 C 0,0 km/h (0 Bft)
27.10.2015 22:15 2,6 C 21,8 C 4,0 C 2,8 C 2,8 C 0,2 C 87 % 90 % 0 % 1017,0 hPa 0,0 l/m 0,0 km/h (0 Bft) NO 45 0 min 0,7 C 2,8 C 0,0 km/h (0 Bft)
27.10.2015 22:20 2,4 C 22,0 C 3,9 C 2,7 C 2,7 C 0,3 C 86 % 90 % 0 % 1017,0 hPa 0,0 l/m 0,0 km/h (0 Bft) NO 45 0 min 0,3 C 2,7 C 0,0 km/h (0 Bft)
27.10.2015 22:25 2,4 C 22,0 C 3,9 C 2,7 C 2,7 C 0,3 C 86 % 90 % 0 % 1017,0 hPa 0,0 l/m 0,0 km/h (0 Bft) NO 45 0 min 0,3 C 2,7 C 0,0 km/h (0 Bft)
27.10.2015 22:30 2,4 C 22,0 C 3,6 C 2,7 C 2,7 C 0,3 C 87 % 91 % 0 % 1016,9 hPa 0,0 l/m 0,0 km/h (0 Bft) O-NO 67 0 min 0,5 C 2,7 C 0,0 km/h (0 Bft)
27.10.2015 22:35 2,4 C 21,9 C 3,6 C 2,7 C 2,7 C 0,3 C 87 % 91 % 0 % 1016,9 hPa 0,0 l/m 0,0 km/h (0 Bft) O-NO 67 0 min 0,5 C 2,7 C 0,0 km/h (0 Bft)
27.10.2015 22:40 2,4 C 22,0 C 3,5 C 2,9 C 2,9 C 0,5 C 87 % 91 % 0 % 1016,9 hPa 0,0 l/m 0,0 km/h (0 Bft) O-NO 67 0 min 0,5 C 2,9 C 0,0 km/h (0 Bft)
27.10.2015 22:45 2,4 C 21,9 C 3,5 C 2,8 C 2,8 C 0,4 C 87 % 91 % 0 % 1016,9 hPa 0,0 l/m 0,0 km/h (0 Bft) SW 225 0 min 0,5 C 2,8 C 0,0 km/h (0 Bft)
27.10.2015 22:50 2,3 C 21,9 C 3,5 C 2,5 C 2,5 C 0,2 C 87 % 91 % 0 % 1016,6 hPa 0,0 l/m 0,0 km/h (0 Bft) NO 45 0 min 0,4 C 2,5 C 0,0 km/h (0 Bft)
27.10.2015 22:55 2,3 C 21,9 C 3,5 C 2,5 C 2,5 C 0,2 C 87 % 91 % 0 % 1016,6 hPa 0,0 l/m 0,0 km/h (0 Bft) NO 45 0 min 0,4 C 2,5 C 0,0 km/h (0 Bft)
27.10.2015 23:00 2,1 C 21,9 C 3,4 C 2,3 C 2,3 C 0,2 C 87 % 91 % 0 % 1016,6 hPa 0,0 l/m 0,0 km/h (0 Bft) NO 45 0 min 0,2 C 2,3 C 0,0 km/h (0 Bft)
27.10.2015 23:05 2,1 C 21,7 C 3,4 C 2,1 C 2,1 C 0,0 C 87 % 91 % 0 % 1016,6 hPa 0,0 l/m 0,0 km/h (0 Bft) NO 45 0 min 0,2 C 2,1 C 0,0 km/h (0 Bft)
27.10.2015 23:10 1,9 C 21,7 C 3,3 C 2,0 C 2,0 C 0,1 C 87 % 90 % 0 % 1016,5 hPa 0,0 l/m 0,0 km/h (0 Bft) NO 45 0 min -0,0 C 2,0 C 0,0 km/h (0 Bft)
27.10.2015 23:15 1,9 C 21,7 C 3,2 C 2,0 C 2,0 C 0,1 C 87 % 90 % 0 % 1016,5 hPa 0,0 l/m 0,0 km/h (0 Bft) NO 45 0 min -0,0 C 2,0 C 0,0 km/h (0 Bft)
27.10.2015 23:20 1,8 C 21,7 C 3,2 C 2,0 C 2,0 C 0,2 C 88 % 90 % 0 % 1016,5 hPa 0,0 l/m 0,0 km/h (0 Bft) O 90 0 min 0,0 C 2,0 C 0,0 km/h (0 Bft)
27.10.2015 23:25 1,9 C 21,7 C 3,2 C 2,0 C 2,0 C 0,1 C 88 % 90 % 0 % 1016,5 hPa 0,0 l/m 0,0 km/h (0 Bft) O 90 0 min 0,1 C 2,0 C 0,0 km/h (0 Bft)
27.10.2015 23:30 1,7 C 21,7 C 3,1 C 1,9 C 1,9 C 0,2 C 88 % 91 % 0 % 1016,4 hPa 0,0 l/m 0,0 km/h (0 Bft) O 90 0 min -0,1 C 1,9 C 0,0 km/h (0 Bft)
27.10.2015 23:35 1,6 C 21,7 C 3,0 C 1,8 C 1,8 C 0,2 C 88 % 91 % 0 % 1016,4 hPa 0,0 l/m 0,0 km/h (0 Bft) O 90 0 min -0,2 C 1,8 C 0,0 km/h (0 Bft)
27.10.2015 23:40 1,6 C 21,7 C 2,9 C 1,8 C 1,8 C 0,2 C 88 % 91 % 0 % 1016,4 hPa 0,0 l/m 0,0 km/h (0 Bft) O 90 0 min -0,2 C 1,8 C 0,0 km/h (0 Bft)
27.10.2015 23:45 1,5 C 21,7 C 2,9 C 1,7 C 1,7 C 0,2 C 88 % 91 % 0 % 1016,4 hPa 0,0 l/m 0,0 km/h (0 Bft) W-SW 247 0 min -0,3 C 1,7 C 0,0 km/h (0 Bft)
27.10.2015 23:50 1,5 C 21,7 C 2,9 C 1,5 C 1,4 C 0,0 C 88 % 90 % 0 % 1016,2 hPa 0,0 l/m 0,0 km/h (0 Bft) SW 225 0 min -0,3 C 1,4 C 0,0 km/h (0 Bft)
27.10.2015 23:55 1,3 C 21,7 C 2,9 C 1,3 C 1,3 C 0,0 C 88 % 91 % 0 % 1016,2 hPa 0,0 l/m 0,0 km/h (0 Bft) SW 225 0 min -0,5 C 1,3 C 0,0 km/h (0 Bft)
_ Min-Zeit 23:55 10:55 05:55 23:55 23:55 02:55 13:15 14:10 00:00 23:50 - 00:00 - - - 23:55 23:55 00:00
Minimum _ 1,3 C 20,9 C 2,8 C 1,3 C 1,3 C 0,0 C 72 % 77 % 0 % 1016,2 hPa - 0,0 km/h (0 Bft) - - - -0,5 C 1,3 C 0,0 km/h (0 Bft)
_ Max-Zeit 13:15 00:00 14:15 14:00 14:00 14:00 09:25 20:55 11:38 00:00 00:00 13:35 - - 12:50 10:45 14:00 12:41
Maximum _ 13,6 C 22,3 C 13,5 C 18,9 C 18,9 C 5,4 C 93 % 91 % 100 % 1020,6 hPa 0,0 l/m 5,0 km/h
NW (1 Bft)
- - 9 min 8,8 C 18,9 C 13,5 km/h
N (3 Bft)
Durchschnitt _ 6,2 C 21,6 C 6,8 C 7,5 C 7,5 C 1,4 C 85 % 86 % 27 % 1018,6 hPa #0,0 l/m 0,9 km/h (0 Bft) O-NO - #5:30 h 3,7 C 7,5 C 1,3 km/h (1 Bft)
2015 www.wetterstation-wechselburg.de